sensor_id;sensor_type;location;lat;lon;timestamp;temperature;humidity
67273;DHT22;54190;49.770;9.250;2023-03-01T00:01:09;-0.50;99.90
67273;DHT22;54190;49.770;9.250;2023-03-01T00:03:35;-0.40;99.90
67273;DHT22;54190;49.770;9.250;2023-03-01T00:06:01;-0.50;99.90
67273;DHT22;54190;49.770;9.250;2023-03-01T00:08:28;-0.50;99.90
67273;DHT22;54190;49.770;9.250;2023-03-01T00:11:09;-0.50;99.90
67273;DHT22;54190;49.770;9.250;2023-03-01T00:13:36;-0.50;99.90
67273;DHT22;54190;49.770;9.250;2023-03-01T00:16:10;-0.50;99.90
67273;DHT22;54190;49.770;9.250;2023-03-01T00:18:36;-0.60;99.90
67273;DHT22;54190;49.770;9.250;2023-03-01T00:21:02;-0.50;99.90
67273;DHT22;54190;49.770;9.250;2023-03-01T00:23:28;-0.50;99.90
67273;DHT22;54190;49.770;9.250;2023-03-01T00:25:54;-0.50;99.90
67273;DHT22;54190;49.770;9.250;2023-03-01T00:28:20;-0.60;99.90
67273;DHT22;54190;49.770;9.250;2023-03-01T00:30:46;-0.70;99.90
67273;DHT22;54190;49.770;9.250;2023-03-01T00:33:12;-0.80;99.90
67273;DHT22;54190;49.770;9.250;2023-03-01T00:35:37;-0.80;99.90
67273;DHT22;54190;49.770;9.250;2023-03-01T00:38:04;-0.80;99.90
67273;DHT22;54190;49.770;9.250;2023-03-01T00:40:32;-0.80;99.90
67273;DHT22;54190;49.770;9.250;2023-03-01T00:42:57;-0.80;99.90
67273;DHT22;54190;49.770;9.250;2023-03-01T00:45:23;-0.80;99.90
67273;DHT22;54190;49.770;9.250;2023-03-01T00:47:51;-0.80;99.90
67273;DHT22;54190;49.770;9.250;2023-03-01T00:50:17;-0.70;99.90
67273;DHT22;54190;49.770;9.250;2023-03-01T00:52:43;-0.70;99.90
67273;DHT22;54190;49.770;9.250;2023-03-01T00:55:10;-0.70;99.90
67273;DHT22;54190;49.770;9.250;2023-03-01T00:57:36;-0.70;99.90
67273;DHT22;54190;49.770;9.250;2023-03-01T01:00:02;-0.60;99.90
67273;DHT22;54190;49.770;9.250;2023-03-01T01:02:29;-0.60;99.90
67273;DHT22;54190;49.770;9.250;2023-03-01T01:04:55;-0.60;99.90
67273;DHT22;54190;49.770;9.250;2023-03-01T01:07:21;-0.70;99.90
67273;DHT22;54190;49.770;9.250;2023-03-01T01:09:46;-0.70;99.90
67273;DHT22;54190;49.770;9.250;2023-03-01T01:12:12;-0.60;99.90
67273;DHT22;54190;49.770;9.250;2023-03-01T01:14:38;-0.70;99.90
67273;DHT22;54190;49.770;9.250;2023-03-01T01:17:04;-0.70;99.90
67273;DHT22;54190;49.770;9.250;2023-03-01T01:19:30;-0.90;99.90
67273;DHT22;54190;49.770;9.250;2023-03-01T01:21:56;-1.00;99.90
67273;DHT22;54190;49.770;9.250;2023-03-01T01:24:22;-1.00;99.90
67273;DHT22;54190;49.770;9.250;2023-03-01T01:26:47;-1.00;99.90
67273;DHT22;54190;49.770;9.250;2023-03-01T01:29:13;-1.00;99.90
67273;DHT22;54190;49.770;9.250;2023-03-01T01:31:41;-1.00;99.90
67273;DHT22;54190;49.770;9.250;2023-03-01T01:34:08;-1.10;99.90
67273;DHT22;54190;49.770;9.250;2023-03-01T01:36:36;-1.10;99.90
67273;DHT22;54190;49.770;9.250;2023-03-01T01:39:03;-1.10;99.90
67273;DHT22;54190;49.770;9.250;2023-03-01T01:41:30;-1.10;99.90
67273;DHT22;54190;49.770;9.250;2023-03-01T01:44:23;-1.10;99.90
67273;DHT22;54190;49.770;9.250;2023-03-01T01:49:22;-1.20;99.90
67273;DHT22;54190;49.770;9.250;2023-03-01T01:51:53;-1.20;99.90
67273;DHT22;54190;49.770;9.250;2023-03-01T01:54:25;-1.20;99.90
67273;DHT22;54190;49.770;9.250;2023-03-01T01:56:56;-1.30;99.90
67273;DHT22;54190;49.770;9.250;2023-03-01T01:59:24;-1.40;99.90
67273;DHT22;54190;49.770;9.250;2023-03-01T02:01:54;-1.50;99.90
67273;DHT22;54190;49.770;9.250;2023-03-01T02:04:21;-1.50;99.90
67273;DHT22;54190;49.770;9.250;2023-03-01T02:06:57;-1.40;99.90
67273;DHT22;54190;49.770;9.250;2023-03-01T02:09:24;-1.40;99.90
67273;DHT22;54190;49.770;9.250;2023-03-01T02:11:51;-1.40;99.90
67273;DHT22;54190;49.770;9.250;2023-03-01T02:14:17;-1.40;99.90
67273;DHT22;54190;49.770;9.250;2023-03-01T02:16:43;-1.40;99.90
67273;DHT22;54190;49.770;9.250;2023-03-01T02:19:19;-1.30;99.90
67273;DHT22;54190;49.770;9.250;2023-03-01T02:21:57;-1.30;99.90
67273;DHT22;54190;49.770;9.250;2023-03-01T02:27:00;-1.30;99.90
67273;DHT22;54190;49.770;9.250;2023-03-01T02:29:27;-1.30;99.90
67273;DHT22;54190;49.770;9.250;2023-03-01T02:31:54;-1.20;99.90
67273;DHT22;54190;49.770;9.250;2023-03-01T02:34:23;-1.20;99.90
67273;DHT22;54190;49.770;9.250;2023-03-01T02:37:02;-1.20;99.90
67273;DHT22;54190;49.770;9.250;2023-03-01T02:39:47;-1.20;99.90
67273;DHT22;54190;49.770;9.250;2023-03-01T02:42:22;-1.20;99.90
67273;DHT22;54190;49.770;9.250;2023-03-01T02:44:49;-1.20;99.90
67273;DHT22;54190;49.770;9.250;2023-03-01T02:47:15;-1.40;99.90
67273;DHT22;54190;49.770;9.250;2023-03-01T02:49:41;-1.50;99.90
67273;DHT22;54190;49.770;9.250;2023-03-01T02:55:13;-1.50;99.90
67273;DHT22;54190;49.770;9.250;2023-03-01T02:57:43;-1.50;99.90
67273;DHT22;54190;49.770;9.250;2023-03-01T03:00:12;-1.50;99.90
67273;DHT22;54190;49.770;9.250;2023-03-01T03:02:46;-1.50;99.90
67273;DHT22;54190;49.770;9.250;2023-03-01T03:05:19;-1.50;99.90
67273;DHT22;54190;49.770;9.250;2023-03-01T03:07:47;-1.50;99.90
67273;DHT22;54190;49.770;9.250;2023-03-01T03:10:16;-1.40;99.90
67273;DHT22;54190;49.770;9.250;2023-03-01T03:12:44;-1.50;99.90
67273;DHT22;54190;49.770;9.250;2023-03-01T03:15:13;-1.50;99.90
67273;DHT22;54190;49.770;9.250;2023-03-01T03:17:41;-1.60;99.90
67273;DHT22;54190;49.770;9.250;2023-03-01T03:20:09;-1.60;99.90
67273;DHT22;54190;49.770;9.250;2023-03-01T03:22:40;-1.70;99.90
67273;DHT22;54190;49.770;9.250;2023-03-01T03:25:08;-1.70;99.90
67273;DHT22;54190;49.770;9.250;2023-03-01T03:27:40;-1.70;99.90
67273;DHT22;54190;49.770;9.250;2023-03-01T03:30:07;-1.60;99.90
67273;DHT22;54190;49.770;9.250;2023-03-01T03:32:37;-1.60;99.90
67273;DHT22;54190;49.770;9.250;2023-03-01T03:35:07;-1.70;99.90
67273;DHT22;54190;49.770;9.250;2023-03-01T03:37:41;-1.70;99.90
67273;DHT22;54190;49.770;9.250;2023-03-01T03:40:26;-1.70;99.90
67273;DHT22;54190;49.770;9.250;2023-03-01T03:42:52;-1.70;99.90
67273;DHT22;54190;49.770;9.250;2023-03-01T03:45:18;-1.60;99.90
67273;DHT22;54190;49.770;9.250;2023-03-01T03:47:44;-1.70;99.90
67273;DHT22;54190;49.770;9.250;2023-03-01T03:50:11;-1.80;99.90
67273;DHT22;54190;49.770;9.250;2023-03-01T03:52:37;-1.80;99.90
67273;DHT22;54190;49.770;9.250;2023-03-01T03:55:04;-1.80;99.90
67273;DHT22;54190;49.770;9.250;2023-03-01T03:57:40;-1.90;99.90
67273;DHT22;54190;49.770;9.250;2023-03-01T04:00:08;-2.00;99.90
67273;DHT22;54190;49.770;9.250;2023-03-01T04:02:41;-1.90;99.90
67273;DHT22;54190;49.770;9.250;2023-03-01T04:05:09;-1.90;99.90
67273;DHT22;54190;49.770;9.250;2023-03-01T04:07:35;-1.90;99.90
67273;DHT22;54190;49.770;9.250;2023-03-01T04:10:03;-1.90;99.90
67273;DHT22;54190;49.770;9.250;2023-03-01T04:12:29;-1.90;99.90
67273;DHT22;54190;49.770;9.250;2023-03-01T04:14:55;-1.90;99.90
67273;DHT22;54190;49.770;9.250;2023-03-01T04:17:20;-1.90;99.90
67273;DHT22;54190;49.770;9.250;2023-03-01T04:19:46;-1.90;99.90
67273;DHT22;54190;49.770;9.250;2023-03-01T04:22:14;-1.90;99.90
67273;DHT22;54190;49.770;9.250;2023-03-01T04:24:42;-1.90;99.90
67273;DHT22;54190;49.770;9.250;2023-03-01T04:27:09;-1.90;99.90
67273;DHT22;54190;49.770;9.250;2023-03-01T04:29:34;-2.00;99.90
67273;DHT22;54190;49.770;9.250;2023-03-01T04:32:00;-2.00;99.90
67273;DHT22;54190;49.770;9.250;2023-03-01T04:34:26;-2.00;99.90
67273;DHT22;54190;49.770;9.250;2023-03-01T04:36:54;-2.00;99.90
67273;DHT22;54190;49.770;9.250;2023-03-01T04:39:20;-1.90;99.90
67273;DHT22;54190;49.770;9.250;2023-03-01T04:41:46;-1.80;99.90
67273;DHT22;54190;49.770;9.250;2023-03-01T04:44:12;-1.80;99.90
67273;DHT22;54190;49.770;9.250;2023-03-01T04:46:38;-1.80;99.90
67273;DHT22;54190;49.770;9.250;2023-03-01T04:49:04;-1.80;99.90
67273;DHT22;54190;49.770;9.250;2023-03-01T04:51:30;-1.80;99.90
67273;DHT22;54190;49.770;9.250;2023-03-01T04:53:58;-1.80;99.90
67273;DHT22;54190;49.770;9.250;2023-03-01T04:56:24;-1.90;99.90
67273;DHT22;54190;49.770;9.250;2023-03-01T04:58:52;-2.00;99.90
67273;DHT22;54190;49.770;9.250;2023-03-01T05:01:19;-2.00;99.90
67273;DHT22;54190;49.770;9.250;2023-03-01T05:03:50;-2.00;99.90
67273;DHT22;54190;49.770;9.250;2023-03-01T05:06:18;-2.00;99.90
67273;DHT22;54190;49.770;9.250;2023-03-01T05:08:44;-1.90;99.90
67273;DHT22;54190;49.770;9.250;2023-03-01T05:11:10;-2.00;99.90
67273;DHT22;54190;49.770;9.250;2023-03-01T05:13:37;-2.00;99.90
67273;DHT22;54190;49.770;9.250;2023-03-01T05:16:04;-1.90;99.90
67273;DHT22;54190;49.770;9.250;2023-03-01T05:18:34;-1.90;99.90
67273;DHT22;54190;49.770;9.250;2023-03-01T05:21:06;-2.00;99.90
67273;DHT22;54190;49.770;9.250;2023-03-01T05:23:33;-2.00;99.90
67273;DHT22;54190;49.770;9.250;2023-03-01T05:26:03;-2.00;99.90
67273;DHT22;54190;49.770;9.250;2023-03-01T05:28:29;-2.00;99.90
67273;DHT22;54190;49.770;9.250;2023-03-01T05:30:56;-1.90;99.90
67273;DHT22;54190;49.770;9.250;2023-03-01T05:33:22;-1.70;99.90
67273;DHT22;54190;49.770;9.250;2023-03-01T05:35:48;-1.60;99.90
67273;DHT22;54190;49.770;9.250;2023-03-01T05:38:15;-1.60;99.90
67273;DHT22;54190;49.770;9.250;2023-03-01T05:40:42;-1.40;99.90
67273;DHT22;54190;49.770;9.250;2023-03-01T05:43:09;-1.30;99.90
67273;DHT22;54190;49.770;9.250;2023-03-01T05:45:37;-1.20;99.90
67273;DHT22;54190;49.770;9.250;2023-03-01T05:48:04;-1.20;99.90
67273;DHT22;54190;49.770;9.250;2023-03-01T05:50:33;-1.10;99.90
67273;DHT22;54190;49.770;9.250;2023-03-01T05:53:09;-1.10;99.90
67273;DHT22;54190;49.770;9.250;2023-03-01T05:55:35;-1.00;99.90
67273;DHT22;54190;49.770;9.250;2023-03-01T05:58:04;-1.00;99.90
67273;DHT22;54190;49.770;9.250;2023-03-01T06:00:30;-1.00;99.90
67273;DHT22;54190;49.770;9.250;2023-03-01T06:02:57;-1.00;99.90
67273;DHT22;54190;49.770;9.250;2023-03-01T06:05:23;-1.00;99.90
67273;DHT22;54190;49.770;9.250;2023-03-01T06:07:49;-1.00;99.90
67273;DHT22;54190;49.770;9.250;2023-03-01T06:10:16;-1.10;99.90
67273;DHT22;54190;49.770;9.250;2023-03-01T06:12:42;-1.00;99.90
67273;DHT22;54190;49.770;9.250;2023-03-01T06:15:10;-1.00;99.90
67273;DHT22;54190;49.770;9.250;2023-03-01T06:17:38;-1.00;99.90
67273;DHT22;54190;49.770;9.250;2023-03-01T06:20:10;-1.00;99.90
67273;DHT22;54190;49.770;9.250;2023-03-01T06:22:36;-0.90;99.90
67273;DHT22;54190;49.770;9.250;2023-03-01T06:25:03;-0.90;99.90
67273;DHT22;54190;49.770;9.250;2023-03-01T06:27:29;-0.90;99.90
67273;DHT22;54190;49.770;9.250;2023-03-01T06:29:54;-0.90;99.90
67273;DHT22;54190;49.770;9.250;2023-03-01T06:32:20;-0.90;99.90
67273;DHT22;54190;49.770;9.250;2023-03-01T06:34:46;-0.90;99.90
67273;DHT22;54190;49.770;9.250;2023-03-01T06:37:11;-0.90;99.90
67273;DHT22;54190;49.770;9.250;2023-03-01T06:39:37;-0.90;99.90
67273;DHT22;54190;49.770;9.250;2023-03-01T06:42:04;-0.80;99.90
67273;DHT22;54190;49.770;9.250;2023-03-01T06:44:30;-0.80;99.90
67273;DHT22;54190;49.770;9.250;2023-03-01T06:46:56;-0.80;99.90
67273;DHT22;54190;49.770;9.250;2023-03-01T06:49:22;-0.80;99.90
67273;DHT22;54190;49.770;9.250;2023-03-01T06:51:47;-0.80;99.90
67273;DHT22;54190;49.770;9.250;2023-03-01T06:54:13;-0.80;99.90
67273;DHT22;54190;49.770;9.250;2023-03-01T06:56:39;-0.80;99.90
67273;DHT22;54190;49.770;9.250;2023-03-01T06:59:05;-0.70;99.90
67273;DHT22;54190;49.770;9.250;2023-03-01T07:01:31;-0.70;99.90
67273;DHT22;54190;49.770;9.250;2023-03-01T07:03:57;-0.70;99.90
67273;DHT22;54190;49.770;9.250;2023-03-01T07:06:23;-0.70;99.90
67273;DHT22;54190;49.770;9.250;2023-03-01T07:08:49;-0.70;99.90
67273;DHT22;54190;49.770;9.250;2023-03-01T07:11:15;-0.70;99.90
67273;DHT22;54190;49.770;9.250;2023-03-01T07:13:41;-0.70;99.90
67273;DHT22;54190;49.770;9.250;2023-03-01T07:16:07;-0.70;99.90
67273;DHT22;54190;49.770;9.250;2023-03-01T07:18:33;-0.60;99.90
67273;DHT22;54190;49.770;9.250;2023-03-01T07:21:04;-0.60;99.90
67273;DHT22;54190;49.770;9.250;2023-03-01T07:23:30;-0.50;99.90
67273;DHT22;54190;49.770;9.250;2023-03-01T07:25:55;-0.40;99.90
67273;DHT22;54190;49.770;9.250;2023-03-01T07:28:24;-0.40;99.90
67273;DHT22;54190;49.770;9.250;2023-03-01T07:30:50;-0.30;99.90
67273;DHT22;54190;49.770;9.250;2023-03-01T07:33:16;-0.30;99.90
67273;DHT22;54190;49.770;9.250;2023-03-01T07:35:42;-0.10;99.90
67273;DHT22;54190;49.770;9.250;2023-03-01T07:38:08;-0.20;99.90
67273;DHT22;54190;49.770;9.250;2023-03-01T07:40:35;-0.10;99.90
67273;DHT22;54190;49.770;9.250;2023-03-01T07:43:00;-0.10;99.90
67273;DHT22;54190;49.770;9.250;2023-03-01T07:45:27;0.00;99.90
67273;DHT22;54190;49.770;9.250;2023-03-01T07:47:54;0.10;99.90
67273;DHT22;54190;49.770;9.250;2023-03-01T07:50:20;0.20;99.90
67273;DHT22;54190;49.770;9.250;2023-03-01T07:52:47;0.30;99.90
67273;DHT22;54190;49.770;9.250;2023-03-01T07:55:13;0.30;99.90
67273;DHT22;54190;49.770;9.250;2023-03-01T07:57:39;0.40;99.90
67273;DHT22;54190;49.770;9.250;2023-03-01T08:00:06;0.40;99.90
67273;DHT22;54190;49.770;9.250;2023-03-01T08:02:37;0.40;99.90
67273;DHT22;54190;49.770;9.250;2023-03-01T08:05:03;0.40;99.90
67273;DHT22;54190;49.770;9.250;2023-03-01T08:07:29;0.50;99.90
67273;DHT22;54190;49.770;9.250;2023-03-01T08:09:55;0.60;99.90
67273;DHT22;54190;49.770;9.250;2023-03-01T08:12:20;0.80;99.50
67273;DHT22;54190;49.770;9.250;2023-03-01T08:14:46;0.90;99.70
67273;DHT22;54190;49.770;9.250;2023-03-01T08:17:14;1.00;99.30
67273;DHT22;54190;49.770;9.250;2023-03-01T08:19:39;1.10;99.40
67273;DHT22;54190;49.770;9.250;2023-03-01T08:22:05;1.10;98.90
67273;DHT22;54190;49.770;9.250;2023-03-01T08:24:31;1.10;99.20
67273;DHT22;54190;49.770;9.250;2023-03-01T08:26:56;1.30;99.00
67273;DHT22;54190;49.770;9.250;2023-03-01T08:29:23;1.30;98.70
67273;DHT22;54190;49.770;9.250;2023-03-01T08:31:50;1.40;99.00
67273;DHT22;54190;49.770;9.250;2023-03-01T08:34:16;1.50;98.50
67273;DHT22;54190;49.770;9.250;2023-03-01T08:36:44;1.60;98.00
67273;DHT22;54190;49.770;9.250;2023-03-01T08:39:12;1.70;98.00
67273;DHT22;54190;49.770;9.250;2023-03-01T08:41:39;1.80;98.20
67273;DHT22;54190;49.770;9.250;2023-03-01T08:44:05;1.90;97.20
67273;DHT22;54190;49.770;9.250;2023-03-01T08:46:36;1.90;97.60
67273;DHT22;54190;49.770;9.250;2023-03-01T08:49:14;2.00;97.70
67273;DHT22;54190;49.770;9.250;2023-03-01T08:51:40;2.10;97.50
67273;DHT22;54190;49.770;9.250;2023-03-01T08:54:12;2.10;96.20
67273;DHT22;54190;49.770;9.250;2023-03-01T08:56:38;2.20;96.60
67273;DHT22;54190;49.770;9.250;2023-03-01T08:59:03;2.20;96.30
67273;DHT22;54190;49.770;9.250;2023-03-01T09:01:29;2.20;95.90
67273;DHT22;54190;49.770;9.250;2023-03-01T09:03:55;2.20;96.00
67273;DHT22;54190;49.770;9.250;2023-03-01T09:06:21;2.30;95.80
67273;DHT22;54190;49.770;9.250;2023-03-01T09:08:48;2.30;95.70
67273;DHT22;54190;49.770;9.250;2023-03-01T09:11:20;2.50;95.90
67273;DHT22;54190;49.770;9.250;2023-03-01T09:13:47;2.60;95.00
67273;DHT22;54190;49.770;9.250;2023-03-01T09:16:15;2.70;94.90
67273;DHT22;54190;49.770;9.250;2023-03-01T09:18:42;2.70;95.10
67273;DHT22;54190;49.770;9.250;2023-03-01T09:21:10;2.80;94.90
67273;DHT22;54190;49.770;9.250;2023-03-01T09:23:40;2.90;95.60
67273;DHT22;54190;49.770;9.250;2023-03-01T09:26:07;3.00;95.20
67273;DHT22;54190;49.770;9.250;2023-03-01T09:28:35;3.10;95.10
67273;DHT22;54190;49.770;9.250;2023-03-01T09:31:01;3.10;95.20
67273;DHT22;54190;49.770;9.250;2023-03-01T09:33:28;2.90;94.20
67273;DHT22;54190;49.770;9.250;2023-03-01T09:38:23;2.90;94.30
67273;DHT22;54190;49.770;9.250;2023-03-01T09:40:49;3.00;95.40
67273;DHT22;54190;49.770;9.250;2023-03-01T09:43:49;3.10;95.50
67273;DHT22;54190;49.770;9.250;2023-03-01T09:46:10;3.30;94.70
67273;DHT22;54190;49.770;9.250;2023-03-01T09:48:48;3.40;93.00
67273;DHT22;54190;49.770;9.250;2023-03-01T09:51:19;3.50;93.80
67273;DHT22;54190;49.770;9.250;2023-03-01T09:53:47;3.60;94.50
67273;DHT22;54190;49.770;9.250;2023-03-01T09:56:45;3.80;94.40
67273;DHT22;54190;49.770;9.250;2023-03-01T09:59:31;3.90;92.60
67273;DHT22;54190;49.770;9.250;2023-03-01T10:04:49;4.20;92.80
67273;DHT22;54190;49.770;9.250;2023-03-01T10:07:33;4.20;91.90
67273;DHT22;54190;49.770;9.250;2023-03-01T10:10:05;4.20;91.60
67273;DHT22;54190;49.770;9.250;2023-03-01T10:12:39;4.30;93.20
67273;DHT22;54190;49.770;9.250;2023-03-01T10:15:15;4.40;92.10
67273;DHT22;54190;49.770;9.250;2023-03-01T10:18:00;4.60;90.90
67273;DHT22;54190;49.770;9.250;2023-03-01T10:20:48;4.50;92.10
67273;DHT22;54190;49.770;9.250;2023-03-01T10:23:17;4.60;91.90
67273;DHT22;54190;49.770;9.250;2023-03-01T10:25:54;4.80;92.20
67273;DHT22;54190;49.770;9.250;2023-03-01T10:28:35;4.90;90.10
67273;DHT22;54190;49.770;9.250;2023-03-01T10:31:05;4.70;90.50
67273;DHT22;54190;49.770;9.250;2023-03-01T10:33:38;4.70;92.70
67273;DHT22;54190;49.770;9.250;2023-03-01T10:36:05;4.90;91.30
67273;DHT22;54190;49.770;9.250;2023-03-01T10:38:51;4.90;90.50
67273;DHT22;54190;49.770;9.250;2023-03-01T10:41:20;4.90;88.70
67273;DHT22;54190;49.770;9.250;2023-03-01T10:43:53;4.50;88.60
67273;DHT22;54190;49.770;9.250;2023-03-01T10:46:32;4.50;91.10
67273;DHT22;54190;49.770;9.250;2023-03-01T10:49:18;4.50;90.80
67273;DHT22;54190;49.770;9.250;2023-03-01T10:51:47;4.50;90.40
67273;DHT22;54190;49.770;9.250;2023-03-01T10:54:20;4.50;89.90
67273;DHT22;54190;49.770;9.250;2023-03-01T10:56:48;4.60;91.00
67273;DHT22;54190;49.770;9.250;2023-03-01T10:59:30;4.70;89.90
67273;DHT22;54190;49.770;9.250;2023-03-01T11:05:13;5.10;90.40
67273;DHT22;54190;49.770;9.250;2023-03-01T11:10:24;5.50;91.40
67273;DHT22;54190;49.770;9.250;2023-03-01T11:12:52;5.70;89.80
67273;DHT22;54190;49.770;9.250;2023-03-01T11:15:26;5.90;88.10
67273;DHT22;54190;49.770;9.250;2023-03-01T11:17:53;6.00;87.00
67273;DHT22;54190;49.770;9.250;2023-03-01T11:20:29;6.10;87.70
67273;DHT22;54190;49.770;9.250;2023-03-01T11:23:02;6.20;84.40
67273;DHT22;54190;49.770;9.250;2023-03-01T11:25:37;6.30;86.90
67273;DHT22;54190;49.770;9.250;2023-03-01T11:28:06;6.40;84.40
67273;DHT22;54190;49.770;9.250;2023-03-01T11:30:45;6.20;79.70
67273;DHT22;54190;49.770;9.250;2023-03-01T11:33:42;6.10;79.60
67273;DHT22;54190;49.770;9.250;2023-03-01T11:36:27;6.00;80.00
67273;DHT22;54190;49.770;9.250;2023-03-01T11:38:55;5.90;81.40
67273;DHT22;54190;49.770;9.250;2023-03-01T11:41:25;6.10;82.60
67273;DHT22;54190;49.770;9.250;2023-03-01T11:44:00;6.30;83.50
67273;DHT22;54190;49.770;9.250;2023-03-01T11:46:51;6.70;83.20
67273;DHT22;54190;49.770;9.250;2023-03-01T11:54:54;6.80;80.20
67273;DHT22;54190;49.770;9.250;2023-03-01T12:00:53;6.60;78.10
67273;DHT22;54190;49.770;9.250;2023-03-01T12:09:33;6.30;80.60
67273;DHT22;54190;49.770;9.250;2023-03-01T12:12:07;6.20;81.70
67273;DHT22;54190;49.770;9.250;2023-03-01T12:20:51;6.30;81.50
67273;DHT22;54190;49.770;9.250;2023-03-01T12:25:44;6.80;81.20
67273;DHT22;54190;49.770;9.250;2023-03-01T12:31:23;6.80;77.20
67273;DHT22;54190;49.770;9.250;2023-03-01T12:40:03;7.10;76.10
67273;DHT22;54190;49.770;9.250;2023-03-01T12:50:23;7.10;78.90
67273;DHT22;54190;49.770;9.250;2023-03-01T12:52:56;7.50;75.70
67273;DHT22;54190;49.770;9.250;2023-03-01T12:55:35;7.60;71.80
67273;DHT22;54190;49.770;9.250;2023-03-01T13:06:42;7.20;75.00
67273;DHT22;54190;49.770;9.250;2023-03-01T13:09:13;7.30;73.50
67273;DHT22;54190;49.770;9.250;2023-03-01T13:11:42;7.60;76.60
67273;DHT22;54190;49.770;9.250;2023-03-01T13:16:46;7.70;68.30
67273;DHT22;54190;49.770;9.250;2023-03-01T13:19:27;7.60;72.30
67273;DHT22;54190;49.770;9.250;2023-03-01T13:22:31;7.80;71.30
67273;DHT22;54190;49.770;9.250;2023-03-01T13:25:13;7.80;69.40
67273;DHT22;54190;49.770;9.250;2023-03-01T13:27:39;7.90;71.00
67273;DHT22;54190;49.770;9.250;2023-03-01T13:30:39;8.00;73.50
67273;DHT22;54190;49.770;9.250;2023-03-01T13:35:49;8.30;69.60
67273;DHT22;54190;49.770;9.250;2023-03-01T13:46:48;7.90;65.50
67273;DHT22;54190;49.770;9.250;2023-03-01T13:49:18;7.80;67.50
67273;DHT22;54190;49.770;9.250;2023-03-01T13:51:49;7.60;67.10
67273;DHT22;54190;49.770;9.250;2023-03-01T13:54:18;7.70;67.70
67273;DHT22;54190;49.770;9.250;2023-03-01T13:56:48;7.90;69.40
67273;DHT22;54190;49.770;9.250;2023-03-01T13:59:22;8.10;68.00
67273;DHT22;54190;49.770;9.250;2023-03-01T14:01:59;8.10;66.40
67273;DHT22;54190;49.770;9.250;2023-03-01T14:04:28;7.90;66.80
67273;DHT22;54190;49.770;9.250;2023-03-01T14:07:16;7.90;68.90
67273;DHT22;54190;49.770;9.250;2023-03-01T14:09:44;8.00;68.60
67273;DHT22;54190;49.770;9.250;2023-03-01T14:17:47;7.90;67.00
67273;DHT22;54190;49.770;9.250;2023-03-01T14:20:25;7.80;66.40
67273;DHT22;54190;49.770;9.250;2023-03-01T14:22:57;7.90;68.30
67273;DHT22;54190;49.770;9.250;2023-03-01T14:25:32;8.10;66.50
67273;DHT22;54190;49.770;9.250;2023-03-01T14:30:41;8.20;64.50
67273;DHT22;54190;49.770;9.250;2023-03-01T14:33:20;8.20;63.10
67273;DHT22;54190;49.770;9.250;2023-03-01T14:38:30;8.20;63.40
67273;DHT22;54190;49.770;9.250;2023-03-01T14:41:02;8.20;64.90
67273;DHT22;54190;49.770;9.250;2023-03-01T14:43:29;8.40;65.80
67273;DHT22;54190;49.770;9.250;2023-03-01T14:45:56;8.70;66.80
67273;DHT22;54190;49.770;9.250;2023-03-01T14:48:22;8.50;63.20
67273;DHT22;54190;49.770;9.250;2023-03-01T14:50:48;8.20;63.50
67273;DHT22;54190;49.770;9.250;2023-03-01T14:53:22;8.30;64.60
67273;DHT22;54190;49.770;9.250;2023-03-01T14:55:52;8.30;64.10
67273;DHT22;54190;49.770;9.250;2023-03-01T14:58:20;8.20;62.50
67273;DHT22;54190;49.770;9.250;2023-03-01T15:00:58;8.20;64.00
67273;DHT22;54190;49.770;9.250;2023-03-01T15:03:25;8.20;63.70
67273;DHT22;54190;49.770;9.250;2023-03-01T15:05:52;8.00;63.70
67273;DHT22;54190;49.770;9.250;2023-03-01T15:08:21;7.90;64.50
67273;DHT22;54190;49.770;9.250;2023-03-01T15:11:02;8.00;64.60
67273;DHT22;54190;49.770;9.250;2023-03-01T15:13:35;8.10;65.10
67273;DHT22;54190;49.770;9.250;2023-03-01T15:16:03;8.10;64.00
67273;DHT22;54190;49.770;9.250;2023-03-01T15:18:30;8.10;64.50
67273;DHT22;54190;49.770;9.250;2023-03-01T15:20:56;8.20;63.60
67273;DHT22;54190;49.770;9.250;2023-03-01T15:23:30;8.30;64.40
67273;DHT22;54190;49.770;9.250;2023-03-01T15:25:57;8.30;63.00
67273;DHT22;54190;49.770;9.250;2023-03-01T15:28:28;8.50;64.00
67273;DHT22;54190;49.770;9.250;2023-03-01T15:31:20;8.70;68.50
67273;DHT22;54190;49.770;9.250;2023-03-01T15:33:46;9.00;64.00
67273;DHT22;54190;49.770;9.250;2023-03-01T15:36:44;9.20;62.00
67273;DHT22;54190;49.770;9.250;2023-03-01T15:44:36;9.30;59.40
67273;DHT22;54190;49.770;9.250;2023-03-01T15:47:08;9.20;59.50
67273;DHT22;54190;49.770;9.250;2023-03-01T15:49:46;9.00;59.10
67273;DHT22;54190;49.770;9.250;2023-03-01T15:52:21;8.90;61.30
67273;DHT22;54190;49.770;9.250;2023-03-01T15:54:47;8.70;60.50
67273;DHT22;54190;49.770;9.250;2023-03-01T15:57:13;8.70;59.60
67273;DHT22;54190;49.770;9.250;2023-03-01T15:59:41;8.70;60.20
67273;DHT22;54190;49.770;9.250;2023-03-01T16:02:12;8.70;61.30
67273;DHT22;54190;49.770;9.250;2023-03-01T16:04:39;8.60;61.20
67273;DHT22;54190;49.770;9.250;2023-03-01T16:07:05;8.60;61.20
67273;DHT22;54190;49.770;9.250;2023-03-01T16:09:31;8.50;61.40
67273;DHT22;54190;49.770;9.250;2023-03-01T16:11:57;8.50;60.40
67273;DHT22;54190;49.770;9.250;2023-03-01T16:14:23;8.30;60.30
67273;DHT22;54190;49.770;9.250;2023-03-01T16:16:49;8.20;61.10
67273;DHT22;54190;49.770;9.250;2023-03-01T16:19:15;8.30;62.90
67273;DHT22;54190;49.770;9.250;2023-03-01T16:21:41;8.40;62.60
67273;DHT22;54190;49.770;9.250;2023-03-01T16:24:08;8.40;63.20
67273;DHT22;54190;49.770;9.250;2023-03-01T16:26:35;8.40;62.20
67273;DHT22;54190;49.770;9.250;2023-03-01T16:29:01;8.30;61.60
67273;DHT22;54190;49.770;9.250;2023-03-01T16:31:27;8.20;62.30
67273;DHT22;54190;49.770;9.250;2023-03-01T16:33:55;8.00;63.40
67273;DHT22;54190;49.770;9.250;2023-03-01T16:36:22;8.00;64.10
67273;DHT22;54190;49.770;9.250;2023-03-01T16:38:52;8.00;64.40
67273;DHT22;54190;49.770;9.250;2023-03-01T16:41:20;8.00;63.30
67273;DHT22;54190;49.770;9.250;2023-03-01T16:43:46;8.00;63.80
67273;DHT22;54190;49.770;9.250;2023-03-01T16:46:21;8.00;65.00
67273;DHT22;54190;49.770;9.250;2023-03-01T16:48:47;7.90;63.50
67273;DHT22;54190;49.770;9.250;2023-03-01T16:51:12;7.70;64.20
67273;DHT22;54190;49.770;9.250;2023-03-01T16:53:38;7.70;65.30
67273;DHT22;54190;49.770;9.250;2023-03-01T16:56:07;7.60;65.50
67273;DHT22;54190;49.770;9.250;2023-03-01T16:58:34;7.40;65.70
67273;DHT22;54190;49.770;9.250;2023-03-01T17:01:14;7.30;65.80
67273;DHT22;54190;49.770;9.250;2023-03-01T17:03:41;7.30;68.80
67273;DHT22;54190;49.770;9.250;2023-03-01T17:06:10;7.30;69.90
67273;DHT22;54190;49.770;9.250;2023-03-01T17:08:38;7.30;69.80
67273;DHT22;54190;49.770;9.250;2023-03-01T17:11:15;7.20;68.60
67273;DHT22;54190;49.770;9.250;2023-03-01T17:13:41;7.10;69.80
67273;DHT22;54190;49.770;9.250;2023-03-01T17:16:09;7.00;71.40
67273;DHT22;54190;49.770;9.250;2023-03-01T17:18:35;6.90;69.70
67273;DHT22;54190;49.770;9.250;2023-03-01T17:21:01;6.80;69.30
67273;DHT22;54190;49.770;9.250;2023-03-01T17:23:28;6.60;70.60
67273;DHT22;54190;49.770;9.250;2023-03-01T17:25:54;6.40;70.80
67273;DHT22;54190;49.770;9.250;2023-03-01T17:28:25;6.40;71.70
67273;DHT22;54190;49.770;9.250;2023-03-01T17:30:51;6.40;72.40